Terminal Aerodrome Forecast
Issued by NWS Fort Wayne, IN

Home | Current Version | Previous Version | Graphics & Text | Print | Product List | Glossary On
Versions: 1 2 3 4 5 6 7 8 9 10 11 12 13 14 15 16 17 18 19 20 21 22
000
FTUS43 KIWX 041100
TAFFWA
TAF
KFWA 041131Z 0412/0512 21012KT P6SM VCSH SCT060 BKN100
     FM041600 23014G22KT P6SM BKN050
     FM042000 26012KT 6SM -SHRA BKN040
      TEMPO 0421/0501 3SM TSRA BR OVC030CB
     FM050100 24008KT 6SM -SHRA BR SCT030 OVC060
     FM050600 19006KT 6SM -SHRA VCTS OVC035CB=

USA.gov is the U.S. government's official web portal to all federal, state and local government web resources and services.